sensor_id;sensor_type;location;lat;lon;timestamp;P1;durP1;ratioP1;P2;durP2;ratioP2
61739;SDS011;47645;45.288;12.038;2023-05-19T00:02:50;7.1;;;3.7;;
61739;SDS011;47645;45.288;12.038;2023-05-19T00:12:50;5.1;;;3.3;;
61739;SDS011;47645;45.288;12.038;2023-05-19T00:22:51;7.9;;;3.3;;
61739;SDS011;47645;45.288;12.038;2023-05-19T00:32:52;7.6;;;3.6;;
61739;SDS011;47645;45.288;12.038;2023-05-19T00:42:53;7.1;;;3.8;;
61739;SDS011;47645;45.288;12.038;2023-05-19T00:52:54;7.4;;;3.0;;
61739;SDS011;47645;45.288;12.038;2023-05-19T01:02:56;7.7;;;2.9;;
61739;SDS011;47645;45.288;12.038;2023-05-19T01:12:56;5.9;;;2.8;;
61739;SDS011;47645;45.288;12.038;2023-05-19T01:23:10;5.4;;;2.8;;
61739;SDS011;47645;45.288;12.038;2023-05-19T01:33:00;6.6;;;2.4;;
61739;SDS011;47645;45.288;12.038;2023-05-19T01:43:00;7.2;;;2.7;;
61739;SDS011;47645;45.288;12.038;2023-05-19T01:53:01;5.8;;;2.6;;
61739;SDS011;47645;45.288;12.038;2023-05-19T02:03:04;5.1;;;2.6;;
61739;SDS011;47645;45.288;12.038;2023-05-19T02:13:03;5.6;;;2.9;;
61739;SDS011;47645;45.288;12.038;2023-05-19T02:23:03;6.1;;;2.6;;
61739;SDS011;47645;45.288;12.038;2023-05-19T02:33:05;5.8;;;2.7;;
61739;SDS011;47645;45.288;12.038;2023-05-19T02:43:06;5.6;;;3.1;;
61739;SDS011;47645;45.288;12.038;2023-05-19T02:53:07;4.8;;;3.3;;
61739;SDS011;47645;45.288;12.038;2023-05-19T03:03:09;6.3;;;2.9;;
61739;SDS011;47645;45.288;12.038;2023-05-19T03:13:09;6.3;;;3.2;;
61739;SDS011;47645;45.288;12.038;2023-05-19T03:23:10;5.3;;;2.8;;
61739;SDS011;47645;45.288;12.038;2023-05-19T03:33:11;5.1;;;3.0;;
61739;SDS011;47645;45.288;12.038;2023-05-19T03:43:12;7.0;;;3.1;;
61739;SDS011;47645;45.288;12.038;2023-05-19T03:53:13;5.5;;;3.5;;
61739;SDS011;47645;45.288;12.038;2023-05-19T04:03:14;6.4;;;3.4;;
61739;SDS011;47645;45.288;12.038;2023-05-19T04:13:15;4.8;;;2.9;;
61739;SDS011;47645;45.288;12.038;2023-05-19T04:23:16;5.8;;;3.3;;
61739;SDS011;47645;45.288;12.038;2023-05-19T04:33:17;7.2;;;3.7;;
61739;SDS011;47645;45.288;12.038;2023-05-19T04:43:18;8.0;;;3.5;;
61739;SDS011;47645;45.288;12.038;2023-05-19T04:53:21;7.0;;;3.4;;
61739;SDS011;47645;45.288;12.038;2023-05-19T05:03:22;5.2;;;3.3;;
61739;SDS011;47645;45.288;12.038;2023-05-19T05:13:21;7.1;;;3.7;;
61739;SDS011;47645;45.288;12.038;2023-05-19T05:23:22;6.7;;;4.1;;
61739;SDS011;47645;45.288;12.038;2023-05-19T05:33:23;6.0;;;3.8;;
61739;SDS011;47645;45.288;12.038;2023-05-19T05:43:24;6.2;;;3.1;;
61739;SDS011;47645;45.288;12.038;2023-05-19T05:53:25;4.9;;;2.5;;
61739;SDS011;47645;45.288;12.038;2023-05-19T06:03:26;6.0;;;2.3;;
61739;SDS011;47645;45.288;12.038;2023-05-19T06:13:27;6.1;;;2.6;;
61739;SDS011;47645;45.288;12.038;2023-05-19T06:23:29;4.9;;;2.5;;
61739;SDS011;47645;45.288;12.038;2023-05-19T06:33:29;5.2;;;2.6;;
61739;SDS011;47645;45.288;12.038;2023-05-19T06:43:30;4.3;;;2.0;;
61739;SDS011;47645;45.288;12.038;2023-05-19T06:53:32;5.7;;;2.0;;
61739;SDS011;47645;45.288;12.038;2023-05-19T07:03:32;6.3;;;2.3;;
61739;SDS011;47645;45.288;12.038;2023-05-19T07:13:33;4.7;;;1.9;;
61739;SDS011;47645;45.288;12.038;2023-05-19T07:23:34;7.0;;;2.0;;
61739;SDS011;47645;45.288;12.038;2023-05-19T07:33:35;5.4;;;2.3;;
61739;SDS011;47645;45.288;12.038;2023-05-19T07:43:36;5.7;;;1.5;;
61739;SDS011;47645;45.288;12.038;2023-05-19T07:53:37;3.9;;;1.8;;
61739;SDS011;47645;45.288;12.038;2023-05-19T08:03:38;3.4;;;1.5;;
61739;SDS011;47645;45.288;12.038;2023-05-19T08:13:39;3.1;;;1.6;;
61739;SDS011;47645;45.288;12.038;2023-05-19T08:23:40;3.1;;;1.5;;
61739;SDS011;47645;45.288;12.038;2023-05-19T08:33:41;4.8;;;1.7;;
61739;SDS011;47645;45.288;12.038;2023-05-19T08:43:43;3.1;;;1.3;;
61739;SDS011;47645;45.288;12.038;2023-05-19T08:53:46;4.8;;;1.5;;
61739;SDS011;47645;45.288;12.038;2023-05-19T09:03:45;3.6;;;1.4;;
61739;SDS011;47645;45.288;12.038;2023-05-19T09:13:46;4.9;;;1.5;;
61739;SDS011;47645;45.288;12.038;2023-05-19T09:23:47;6.3;;;1.3;;
61739;SDS011;47645;45.288;12.038;2023-05-19T09:33:51;7.6;;;1.8;;
61739;SDS011;47645;45.288;12.038;2023-05-19T09:43:53;5.9;;;1.3;;
61739;SDS011;47645;45.288;12.038;2023-05-19T09:53:51;4.9;;;1.0;;
61739;SDS011;47645;45.288;12.038;2023-05-19T10:03:51;5.3;;;1.6;;
61739;SDS011;47645;45.288;12.038;2023-05-19T10:13:54;4.1;;;1.3;;
61739;SDS011;47645;45.288;12.038;2023-05-19T10:23:53;3.8;;;1.2;;
61739;SDS011;47645;45.288;12.038;2023-05-19T10:33:58;4.1;;;1.3;;
61739;SDS011;47645;45.288;12.038;2023-05-19T10:44:00;3.1;;;1.0;;
61739;SDS011;47645;45.288;12.038;2023-05-19T10:54:00;2.8;;;1.1;;
61739;SDS011;47645;45.288;12.038;2023-05-19T11:04:02;3.7;;;1.0;;
61739;SDS011;47645;45.288;12.038;2023-05-19T11:13:59;3.1;;;1.1;;
61739;SDS011;47645;45.288;12.038;2023-05-19T11:24:00;2.1;;;0.9;;
61739;SDS011;47645;45.288;12.038;2023-05-19T11:34:02;2.5;;;0.8;;
61739;SDS011;47645;45.288;12.038;2023-05-19T11:44:03;2.3;;;1.0;;
61739;SDS011;47645;45.288;12.038;2023-05-19T11:54:04;6.3;;;1.1;;
61739;SDS011;47645;45.288;12.038;2023-05-19T12:04:06;3.5;;;1.0;;
61739;SDS011;47645;45.288;12.038;2023-05-19T12:14:08;4.9;;;1.2;;
61739;SDS011;47645;45.288;12.038;2023-05-19T12:24:08;3.2;;;0.9;;
61739;SDS011;47645;45.288;12.038;2023-05-19T12:34:11;4.5;;;1.1;;
61739;SDS011;47645;45.288;12.038;2023-05-19T12:44:13;5.6;;;1.2;;
61739;SDS011;47645;45.288;12.038;2023-05-19T12:54:13;4.2;;;1.0;;
61739;SDS011;47645;45.288;12.038;2023-05-19T13:04:14;3.1;;;1.2;;
61739;SDS011;47645;45.288;12.038;2023-05-19T13:14:17;2.5;;;1.0;;
61739;SDS011;47645;45.288;12.038;2023-05-19T13:24:17;5.1;;;1.2;;
61739;SDS011;47645;45.288;12.038;2023-05-19T13:34:18;2.7;;;1.1;;
61739;SDS011;47645;45.288;12.038;2023-05-19T13:44:20;4.0;;;1.2;;
61739;SDS011;47645;45.288;12.038;2023-05-19T13:54:22;2.5;;;1.1;;
61739;SDS011;47645;45.288;12.038;2023-05-19T14:04:23;4.9;;;1.1;;
61739;SDS011;47645;45.288;12.038;2023-05-19T14:14:24;3.1;;;1.3;;
61739;SDS011;47645;45.288;12.038;2023-05-19T14:24:25;3.7;;;1.3;;
61739;SDS011;47645;45.288;12.038;2023-05-19T14:34:27;3.3;;;1.2;;
61739;SDS011;47645;45.288;12.038;2023-05-19T14:44:29;3.1;;;0.9;;
61739;SDS011;47645;45.288;12.038;2023-05-19T14:54:29;2.1;;;0.8;;
61739;SDS011;47645;45.288;12.038;2023-05-19T15:04:30;2.5;;;0.9;;
61739;SDS011;47645;45.288;12.038;2023-05-19T15:14:31;2.3;;;0.8;;
61739;SDS011;47645;45.288;12.038;2023-05-19T15:24:33;2.0;;;0.9;;
61739;SDS011;47645;45.288;12.038;2023-05-19T15:34:34;1.6;;;0.7;;
61739;SDS011;47645;45.288;12.038;2023-05-19T15:44:36;2.1;;;0.9;;
61739;SDS011;47645;45.288;12.038;2023-05-19T15:54:37;2.6;;;0.9;;
61739;SDS011;47645;45.288;12.038;2023-05-19T16:04:38;3.3;;;0.7;;
61739;SDS011;47645;45.288;12.038;2023-05-19T16:14:40;1.9;;;0.8;;
61739;SDS011;47645;45.288;12.038;2023-05-19T16:24:41;2.3;;;1.1;;
61739;SDS011;47645;45.288;12.038;2023-05-19T16:34:42;1.9;;;0.9;;
61739;SDS011;47645;45.288;12.038;2023-05-19T16:44:44;2.4;;;1.0;;
61739;SDS011;47645;45.288;12.038;2023-05-19T16:54:45;1.5;;;0.8;;
61739;SDS011;47645;45.288;12.038;2023-05-19T17:04:46;1.7;;;0.8;;
61739;SDS011;47645;45.288;12.038;2023-05-19T17:14:49;1.7;;;1.0;;
61739;SDS011;47645;45.288;12.038;2023-05-19T17:24:49;2.2;;;1.0;;
61739;SDS011;47645;45.288;12.038;2023-05-19T17:34:50;3.1;;;0.7;;
61739;SDS011;47645;45.288;12.038;2023-05-19T17:44:51;1.8;;;0.9;;
61739;SDS011;47645;45.288;12.038;2023-05-19T17:54:53;1.7;;;1.0;;
61739;SDS011;47645;45.288;12.038;2023-05-19T18:04:53;2.0;;;1.3;;
61739;SDS011;47645;45.288;12.038;2023-05-19T18:14:54;3.5;;;1.5;;
61739;SDS011;47645;45.288;12.038;2023-05-19T18:24:56;3.1;;;1.3;;
61739;SDS011;47645;45.288;12.038;2023-05-19T18:34:57;4.1;;;2.0;;
61739;SDS011;47645;45.288;12.038;2023-05-19T18:44:58;7.0;;;3.6;;
61739;SDS011;47645;45.288;12.038;2023-05-19T18:55:00;8.6;;;4.2;;
61739;SDS011;47645;45.288;12.038;2023-05-19T19:05:03;10.3;;;4.4;;
61739;SDS011;47645;45.288;12.038;2023-05-19T19:15:02;9.1;;;4.9;;
61739;SDS011;47645;45.288;12.038;2023-05-19T19:25:03;9.8;;;4.8;;
61739;SDS011;47645;45.288;12.038;2023-05-19T19:35:04;9.2;;;5.1;;
61739;SDS011;47645;45.288;12.038;2023-05-19T19:40:04;7.2;;;4.7;;
61739;SDS011;47645;45.288;12.038;2023-05-19T19:50:07;9.4;;;4.9;;
61739;SDS011;47645;45.288;12.038;2023-05-19T20:00:08;6.5;;;4.5;;
61739;SDS011;47645;45.288;12.038;2023-05-19T20:10:08;7.8;;;3.9;;
61739;SDS011;47645;45.288;12.038;2023-05-19T20:20:11;6.5;;;3.8;;
61739;SDS011;47645;45.288;12.038;2023-05-19T20:30:10;6.5;;;4.2;;
61739;SDS011;47645;45.288;12.038;2023-05-19T20:40:11;9.3;;;4.4;;
61739;SDS011;47645;45.288;12.038;2023-05-19T20:50:12;6.9;;;4.5;;
61739;SDS011;47645;45.288;12.038;2023-05-19T21:00:13;6.3;;;3.7;;
61739;SDS011;47645;45.288;12.038;2023-05-19T21:10:14;7.2;;;4.1;;
61739;SDS011;47645;45.288;12.038;2023-05-19T21:20:15;4.9;;;3.7;;
61739;SDS011;47645;45.288;12.038;2023-05-19T21:30:16;5.9;;;3.9;;
61739;SDS011;47645;45.288;12.038;2023-05-19T21:40:17;5.7;;;3.7;;
61739;SDS011;47645;45.288;12.038;2023-05-19T21:50:18;5.7;;;3.8;;
61739;SDS011;47645;45.288;12.038;2023-05-19T22:00:19;4.5;;;3.4;;
61739;SDS011;47645;45.288;12.038;2023-05-19T22:10:20;4.8;;;3.2;;
61739;SDS011;47645;45.288;12.038;2023-05-19T22:20:21;4.5;;;2.8;;
61739;SDS011;47645;45.288;12.038;2023-05-19T22:30:22;4.7;;;2.8;;
61739;SDS011;47645;45.288;12.038;2023-05-19T22:40:23;4.3;;;3.4;;
61739;SDS011;47645;45.288;12.038;2023-05-19T22:50:25;4.6;;;3.1;;
61739;SDS011;47645;45.288;12.038;2023-05-19T23:00:25;4.1;;;3.0;;
61739;SDS011;47645;45.288;12.038;2023-05-19T23:10:27;4.4;;;3.2;;
61739;SDS011;47645;45.288;12.038;2023-05-19T23:20:28;4.4;;;3.2;;
61739;SDS011;47645;45.288;12.038;2023-05-19T23:30:29;4.4;;;3.5;;
61739;SDS011;47645;45.288;12.038;2023-05-19T23:40:30;5.7;;;3.8;;
61739;SDS011;47645;45.288;12.038;2023-05-19T23:50:31;5.0;;;3.5;;
